Nf67 Femarnbaelt II — OU3102 — position and weather

sailwx.info

Track history (hours):
 
Tides and Currents Weather Stations Pressure Air Temp Water Temp Dewpoint Dewpoint Depression Visibility Wind Speed Wind Dir Waves Ship Positions

Nf67 Femarnbaelt II

Last reported at 2018-May-24 15:53 UTC. Time now 2018-May-26 02:26 UTC.
Position N 57°42' E 009°57'.

Length 15 m.

Type: Fishing. MMSI: 219012459.

Date/timePositionNaut miles runAvg speedWind from/ knotsBaromVisibWave heightAir tempDewpointWater temp
2018-May-24 15:53N 57°42' E 009°57'1 2.9
2018-May-24 15:30N 57°42' E 009°59'1 2.9
2018-May-24 15:00N 57°43' E 010°02'5 0.8
2018-May-24 08:41N 57°44' E 010°11'1 2.8
2018-May-24 08:28N 57°44' E 010°10'1 2.7
2018-May-24 08:00N 57°43' E 010°07'1 2.7
2018-May-24 07:30N 57°43' E 010°05'1 2.8
2018-May-24 07:00N 57°43' E 010°02'8 0.2
2018-May-22 07:45N 57°36' E 009°57'0 0.0
2018-May-22 07:27N 57°36' E 009°57'6 0.3
2018-May-21 11:27N 57°41' E 009°51'1 2.5
2018-May-21 10:57N 57°41' E 009°53'1 2.7
2018-May-21 10:30N 57°42' E 009°55'1 2.7
2018-May-21 10:00N 57°42' E 009°57'1 2.6
2018-May-21 09:30N 57°42' E 009°60'2 2.6
2018-May-21 08:51N 57°42' E 010°03'0 1.1
2018-May-21 08:28N 57°42' E 010°02'1 2.9
2018-May-21 08:00N 57°42' E 009°60'2 0.1
2018-May-20 05:46N 57°41' E 010°04'1 2.5
2018-May-20 05:26N 57°41' E 010°03'1 2.5
2018-May-20 04:59N 57°41' E 010°01'1 2.6
2018-May-20 04:30N 57°40' E 009°59'2 0.3
2018-May-19 19:45N 57°38' E 009°56'2 7.0
2018-May-19 19:29N 57°36' E 009°58'1 0.7
2018-May-19 18:44N 57°36' E 009°57'0 0.0
2018-May-19 18:26N 57°36' E 009°57'0 0.0
2018-May-19 12:20N 57°36' E 009°57'0 0.0
2018-May-19 11:59N 57°36' E 009°57'0 0.0
2018-May-19 11:26N 57°36' E 009°57'0 0.0
2018-May-19 10:59N 57°36' E 009°57'0 0.0
2018-May-19 10:26N 57°36' E 009°57'0 0.0
2018-May-19 09:59N 57°36' E 009°57'0 0.0
2018-May-19 09:29N 57°36' E 009°57'0 0.0
2018-May-19 05:38N 57°36' E 009°57'0 0.0
2018-May-19 05:26N 57°36' E 009°57'0 0.0
2018-May-19 04:02N 57°36' E 009°57'0 0.1
2018-May-19 03:59N 57°36' E 009°57'0 0.0
2018-May-19 03:23N 57°36' E 009°57'  
2018-May-16 20:09N 57°39' E 009°57'1 3.8
2018-May-16 20:00N 57°38' E 009°56'3 4.4
2018-May-16 19:21N 57°36' E 009°57'0 0.0
2018-May-16 15:09N 57°36' E 009°57'0 0.0
2018-May-16 14:54N 57°36' E 009°57'0 0.0
2018-May-16 14:24N 57°36' E 009°57'0 0.0
2018-May-16 13:15N 57°36' E 009°57'0 0.0
2018-May-16 11:51N 57°36' E 009°57'0 0.5
2018-May-16 11:25N 57°36' E 009°58'2 5.7
2018-May-16 11:00N 57°38' E 009°60'3 6.0
2018-May-16 10:30N 57°40' E 010°04'3 6.4
2018-May-16 10:00N 57°42' E 010°09'2 3.5
2018-May-16 09:30N 57°43' E 010°10'1 2.6
2018-May-16 09:00N 57°43' E 010°08'1 2.7
2018-May-16 08:30N 57°43' E 010°06'1 2.6
2018-May-16 07:57N 57°42' E 010°03'1 2.6
2018-May-16 07:30N 57°41' E 010°01'1 2.6
2018-May-16 07:00N 57°41' E 009°59'1 2.5
2018-May-16 06:30N 57°40' E 009°57'1 2.6
2018-May-16 06:00N 57°40' E 009°55'1 2.7
2018-May-16 05:29N 57°40' E 009°52'1 1.5
2018-May-16 04:57N 57°39' E 009°51'1 2.3
2018-May-16 04:24N 57°40' E 009°53'1 2.4
2018-May-16 03:52N 57°39' E 009°56'4 0.2
2018-May-15 09:23N 57°36' E 009°57'0 0.0
2018-May-15 07:51N 57°36' E 009°57'0 1.3
2018-May-15 07:29N 57°36' E 009°57'  
Track history (hours):
 
Tides and Currents Weather Stations Pressure Air Temp Water Temp Dewpoint Dewpoint Depression Visibility Wind Speed Wind Dir Waves Ship Positions

Nf67 Femarnbaelt II

Last reported at 2018-May-24 15:53 UTC. Time now 2018-May-26 02:26 UTC.
Position N 57°42' E 009°57'.

Length 15 m.

Type: Fishing. MMSI: 219012459.

Date/timePositionNaut miles runAvg speedWind from/ knotsBaromVisibWave heightAir tempDewpointWater temp
2018-May-24 15:53N 57°42' E 009°57'1 2.9
2018-May-24 15:30N 57°42' E 009°59'1 2.9
2018-May-24 15:00N 57°43' E 010°02'5 0.8
2018-May-24 08:41N 57°44' E 010°11'1 2.8
2018-May-24 08:28N 57°44' E 010°10'1 2.7
2018-May-24 08:00N 57°43' E 010°07'1 2.7
2018-May-24 07:30N 57°43' E 010°05'1 2.8
2018-May-24 07:00N 57°43' E 010°02'8 0.2
2018-May-22 07:45N 57°36' E 009°57'0 0.0
2018-May-22 07:27N 57°36' E 009°57'6 0.3
2018-May-21 11:27N 57°41' E 009°51'1 2.5
2018-May-21 10:57N 57°41' E 009°53'1 2.7
2018-May-21 10:30N 57°42' E 009°55'1 2.7
2018-May-21 10:00N 57°42' E 009°57'1 2.6
2018-May-21 09:30N 57°42' E 009°60'2 2.6
2018-May-21 08:51N 57°42' E 010°03'0 1.1
2018-May-21 08:28N 57°42' E 010°02'1 2.9
2018-May-21 08:00N 57°42' E 009°60'2 0.1
2018-May-20 05:46N 57°41' E 010°04'1 2.5
2018-May-20 05:26N 57°41' E 010°03'1 2.5
2018-May-20 04:59N 57°41' E 010°01'1 2.6
2018-May-20 04:30N 57°40' E 009°59'2 0.3
2018-May-19 19:45N 57°38' E 009°56'2 7.0
2018-May-19 19:29N 57°36' E 009°58'1 0.7
2018-May-19 18:44N 57°36' E 009°57'0 0.0
2018-May-19 18:26N 57°36' E 009°57'0 0.0
2018-May-19 12:20N 57°36' E 009°57'0 0.0
2018-May-19 11:59N 57°36' E 009°57'0 0.0
2018-May-19 11:26N 57°36' E 009°57'0 0.0
2018-May-19 10:59N 57°36' E 009°57'0 0.0
2018-May-19 10:26N 57°36' E 009°57'0 0.0
2018-May-19 09:59N 57°36' E 009°57'0 0.0
2018-May-19 09:29N 57°36' E 009°57'0 0.0
2018-May-19 05:38N 57°36' E 009°57'0 0.0
2018-May-19 05:26N 57°36' E 009°57'0 0.0
2018-May-19 04:02N 57°36' E 009°57'0 0.1
2018-May-19 03:59N 57°36' E 009°57'0 0.0
2018-May-19 03:23N 57°36' E 009°57'  
2018-May-16 20:09N 57°39' E 009°57'1 3.8
2018-May-16 20:00N 57°38' E 009°56'3 4.4
2018-May-16 19:21N 57°36' E 009°57'0 0.0
2018-May-16 15:09N 57°36' E 009°57'0 0.0
2018-May-16 14:54N 57°36' E 009°57'0 0.0
2018-May-16 14:24N 57°36' E 009°57'0 0.0
2018-May-16 13:15N 57°36' E 009°57'0 0.0
2018-May-16 11:51N 57°36' E 009°57'0 0.5
2018-May-16 11:25N 57°36' E 009°58'2 5.7
2018-May-16 11:00N 57°38' E 009°60'3 6.0
2018-May-16 10:30N 57°40' E 010°04'3 6.4
2018-May-16 10:00N 57°42' E 010°09'2 3.5
2018-May-16 09:30N 57°43' E 010°10'1 2.6
2018-May-16 09:00N 57°43' E 010°08'1 2.7
2018-May-16 08:30N 57°43' E 010°06'1 2.6
2018-May-16 07:57N 57°42' E 010°03'1 2.6
2018-May-16 07:30N 57°41' E 010°01'1 2.6
2018-May-16 07:00N 57°41' E 009°59'1 2.5
2018-May-16 06:30N 57°40' E 009°57'1 2.6
2018-May-16 06:00N 57°40' E 009°55'1 2.7
2018-May-16 05:29N 57°40' E 009°52'1 1.5
2018-May-16 04:57N 57°39' E 009°51'1 2.3
2018-May-16 04:24N 57°40' E 009°53'1 2.4
2018-May-16 03:52N 57°39' E 009°56'4 0.2
2018-May-15 09:23N 57°36' E 009°57'0 0.0
2018-May-15 07:51N 57°36' E 009°57'0 1.3
2018-May-15 07:29N 57°36' E 009°57'  

Dump ship's entire track history